TimeCDT,TemperatureF,Dew PointF,Humidity,Sea Level PressureIn,VisibilityMPH,Wind Direction,Wind SpeedMPH,Gust SpeedMPH,PrecipitationIn,Events,Conditions,WindDirDegrees,DateUTC
12:15 AM,61.5,59.7,94,30.27,5.0,Calm,Calm,-,N/A,,Clear,0,2013-07-15 05:15:00
12:35 AM,60.4,58.8,94,30.27,5.0,Calm,Calm,-,N/A,,Clear,0,2013-07-15 05:35:00
12:55 AM,60.6,59.2,95,30.28,7.0,Calm,Calm,-,N/A,,Clear,0,2013-07-15 05:55:00
1:15 AM,59.2,57.7,95,30.28,7.0,Calm,Calm,-,N/A,,Clear,0,2013-07-15 06:15:00
1:35 AM,59.5,58.1,95,30.28,5.0,Calm,Calm,-,N/A,,Clear,0,2013-07-15 06:35:00
1:55 AM,58.3,56.8,95,30.28,7.0,Calm,Calm,-,N/A,,Scattered Clouds,0,2013-07-15 06:55:00
2:15 AM,58.5,57.2,96,30.28,7.0,Calm,Calm,-,N/A,,Scattered Clouds,0,2013-07-15 07:15:00
2:35 AM,58.5,57.2,96,30.28,10.0,Calm,Calm,-,N/A,,Scattered Clouds,0,2013-07-15 07:35:00
2:55 AM,58.5,57.2,96,30.28,5.0,Calm,Calm,-,N/A,,Scattered Clouds,0,2013-07-15 07:55:00
3:15 AM,58.3,56.7,94,30.28,7.0,Calm,Calm,-,N/A,,Scattered Clouds,0,2013-07-15 08:15:00
3:35 AM,57.7,56.1,94,30.28,5.0,Calm,Calm,-,N/A,,Scattered Clouds,0,2013-07-15 08:35:00
3:55 AM,58.5,57.2,96,30.28,7.0,Calm,Calm,-,N/A,,Mostly Cloudy,0,2013-07-15 08:55:00
4:15 AM,58.1,56.7,95,30.28,7.0,Calm,Calm,-,N/A,,Scattered Clouds,0,2013-07-15 09:15:00
4:35 AM,57.9,56.5,95,30.29,4.0,Calm,Calm,-,N/A,,Clear,0,2013-07-15 09:35:00
4:55 AM,58.8,57.6,96,30.29,7.0,Calm,Calm,-,N/A,,Mostly Cloudy,0,2013-07-15 09:55:00
5:15 AM,60.3,58.8,95,30.29,7.0,Calm,Calm,-,N/A,,Overcast,0,2013-07-15 10:15:00
5:35 AM,60.3,59.0,96,30.29,5.0,Calm,Calm,-,N/A,,Mostly Cloudy,0,2013-07-15 10:35:00
5:55 AM,59.2,57.9,96,30.30,4.0,Calm,Calm,-,N/A,,Scattered Clouds,0,2013-07-15 10:55:00
6:15 AM,59.4,57.9,95,30.30,5.0,Calm,Calm,-,N/A,,Clear,0,2013-07-15 11:15:00
6:35 AM,62.2,61.0,96,30.30,4.0,Calm,Calm,-,N/A,,Scattered Clouds,0,2013-07-15 11:35:00
6:55 AM,64.6,63.1,95,30.31,5.0,Calm,Calm,-,N/A,,Scattered Clouds,0,2013-07-15 11:55:00
7:15 AM,67.5,65.3,93,30.31,7.0,Calm,Calm,-,N/A,,Clear,0,2013-07-15 12:15:00
7:35 AM,69.3,65.8,89,30.31,10.0,Calm,Calm,-,N/A,,Clear,0,2013-07-15 12:35:00
7:55 AM,71.2,65.8,83,30.31,10.0,Calm,Calm,-,N/A,,Clear,0,2013-07-15 12:55:00
8:15 AM,72.7,66.0,80,30.31,10.0,Calm,Calm,-,N/A,,Clear,0,2013-07-15 13:15:00
8:35 AM,74.5,66.7,77,30.32,10.0,Calm,Calm,-,N/A,,Clear,0,2013-07-15 13:35:00
8:55 AM,75.2,66.6,74,30.31,10.0,Calm,Calm,-,N/A,,Mostly Cloudy,0,2013-07-15 13:55:00
9:15 AM,75.9,66.6,73,30.31,10.0,Calm,Calm,-,N/A,,Mostly Cloudy,0,2013-07-15 14:15:00
9:35 AM,77.5,66.9,70,30.31,10.0,Calm,Calm,-,N/A,,Mostly Cloudy,0,2013-07-15 14:35:00
9:55 AM,77.2,66.7,70,30.31,10.0,Calm,Calm,-,N/A,,Mostly Cloudy,0,2013-07-15 14:55:00
10:15 AM,78.4,67.3,68,30.31,10.0,Calm,Calm,-,N/A,,Scattered Clouds,0,2013-07-15 15:15:00
10:35 AM,79.0,66.9,66,30.31,7.0,Calm,Calm,-,N/A,,Scattered Clouds,0,2013-07-15 15:35:00
10:55 AM,79.7,65.1,61,30.31,10.0,Calm,Calm,-,N/A,,Scattered Clouds,0,2013-07-15 15:55:00
11:15 AM,81.5,64.2,56,30.31,10.0,SSW,3.5,-,N/A,,Clear,200,2013-07-15 16:15:00
11:35 AM,82.4,65.1,56,30.31,10.0,Calm,Calm,-,N/A,,Clear,0,2013-07-15 16:35:00
11:55 AM,81.3,66.2,60,30.31,10.0,Calm,Calm,-,N/A,,Clear,0,2013-07-15 16:55:00
12:15 PM,82.8,64.8,54,30.31,10.0,Calm,Calm,-,N/A,,Clear,0,2013-07-15 17:15:00
12:35 PM,83.3,64.9,54,30.30,7.0,Calm,Calm,-,N/A,,Clear,0,2013-07-15 17:35:00
1:15 PM,81.9,64.8,56,30.29,10.0,Calm,Calm,-,N/A,,Mostly Cloudy,0,2013-07-15 18:15:00
1:55 PM,84.7,66.6,54,30.29,7.0,Calm,Calm,-,N/A,,Scattered Clouds,0,2013-07-15 18:55:00
2:55 PM,83.8,67.1,57,30.28,10.0,Calm,Calm,-,N/A,,Mostly Cloudy,0,2013-07-15 19:55:00
3:15 PM,84.2,68.0,58,30.28,10.0,South,4.6,-,N/A,,Mostly Cloudy,170,2013-07-15 20:15:00
3:35 PM,82.2,67.3,60,30.28,10.0,Calm,Calm,-,N/A,,Mostly Cloudy,0,2013-07-15 20:35:00
3:55 PM,81.5,67.3,62,30.27,10.0,South,3.5,-,N/A,,Mostly Cloudy,180,2013-07-15 20:55:00
4:15 PM,83.5,66.9,57,30.27,10.0,SSE,6.9,-,N/A,,Mostly Cloudy,160,2013-07-15 21:15:00
4:35 PM,83.5,68.0,59,30.27,10.0,South,4.6,-,N/A,,Mostly Cloudy,180,2013-07-15 21:35:00
4:55 PM,83.3,68.0,60,30.27,10.0,Calm,Calm,-,N/A,,Mostly Cloudy,0,2013-07-15 21:55:00
5:15 PM,83.3,68.5,61,30.27,10.0,SSE,5.8,-,N/A,,Scattered Clouds,160,2013-07-15 22:15:00
5:35 PM,81.9,68.4,63,30.27,10.0,South,3.5,-,N/A,,Mostly Cloudy,170,2013-07-15 22:35:00
5:55 PM,81.5,67.6,63,30.26,10.0,Calm,Calm,-,N/A,,Overcast,0,2013-07-15 22:55:00
6:15 PM,81.5,68.5,65,30.26,10.0,SSE,3.5,-,N/A,,Scattered Clouds,160,2013-07-15 23:15:00
6:35 PM,81.3,68.4,65,30.26,7.0,SSE,3.5,-,N/A,,Scattered Clouds,160,2013-07-15 23:35:00
6:55 PM,81.3,68.0,64,30.26,10.0,South,4.6,-,N/A,,Scattered Clouds,170,2013-07-15 23:55:00
7:15 PM,80.6,68.0,65,30.25,7.0,SSE,3.5,-,N/A,,Scattered Clouds,160,2013-07-16 00:15:00
7:35 PM,79.2,67.8,68,30.26,10.0,Calm,Calm,-,N/A,,Clear,0,2013-07-16 00:35:00
7:55 PM,75.7,68.4,78,30.26,5.0,Calm,Calm,-,N/A,,Haze,0,2013-07-16 00:55:00
8:15 PM,75.4,69.1,81,30.26,10.0,Calm,Calm,-,N/A,,Mostly Cloudy,0,2013-07-16 01:15:00
8:35 PM,74.7,69.1,83,30.26,10.0,Calm,Calm,-,N/A,,Overcast,0,2013-07-16 01:35:00
8:55 PM,73.4,68.9,86,30.26,10.0,Calm,Calm,-,N/A,,Scattered Clouds,0,2013-07-16 01:55:00
9:15 PM,71.8,68.2,88,30.26,10.0,Calm,Calm,-,N/A,,Scattered Clouds,0,2013-07-16 02:15:00
9:35 PM,72.0,68.0,87,30.27,10.0,Calm,Calm,-,N/A,,Clear,0,2013-07-16 02:35:00
9:55 PM,71.1,67.6,89,30.27,10.0,Calm,Calm,-,N/A,,Clear,0,2013-07-16 02:55:00
10:15 PM,70.3,67.6,91,30.27,10.0,Calm,Calm,-,N/A,,Clear,0,2013-07-16 03:15:00
10:35 PM,70.0,67.5,92,30.27,7.0,Calm,Calm,-,N/A,,Clear,0,2013-07-16 03:35:00
10:55 PM,70.0,67.8,93,30.27,7.0,Calm,Calm,-,N/A,,Clear,0,2013-07-16 03:55:00
11:15 PM,69.8,67.1,91,30.27,10.0,Calm,Calm,-,N/A,,Clear,0,2013-07-16 04:15:00
11:35 PM,69.8,67.5,92,30.27,7.0,Calm,Calm,-,N/A,,Clear,0,2013-07-16 04:35:00
11:55 PM,69.6,67.3,92,30.27,7.0,Calm,Calm,-,N/A,,Scattered Clouds,0,2013-07-16 04:55:00